createdAt,value
2022-08-11T00:02:29.800Z,1.83
2022-08-11T00:05:20.356Z,2.17
2022-08-11T00:08:08.352Z,2.30
2022-08-11T00:10:59.856Z,2.23
2022-08-11T00:13:51.037Z,2.13
2022-08-11T00:16:39.630Z,2.10
2022-08-11T00:20:12.187Z,2.10
2022-08-11T00:22:41.963Z,2.00
2022-08-11T00:25:30.800Z,2.00
2022-08-11T00:28:28.196Z,2.20
2022-08-11T00:31:25.325Z,2.33
2022-08-11T00:34:14.416Z,2.10
2022-08-11T00:37:04.775Z,2.00
2022-08-11T00:39:55.996Z,2.23
2022-08-11T00:42:52.072Z,2.03
2022-08-11T00:45:52.589Z,2.40
2022-08-11T00:48:51.304Z,2.10
2022-08-11T00:51:56.654Z,2.20
2022-08-11T00:55:30.982Z,2.60
2022-08-11T00:59:03.976Z,2.00
2022-08-11T01:02:00.404Z,1.80
2022-08-11T01:05:25.500Z,1.90
2022-08-11T01:08:53.316Z,2.13
2022-08-11T01:12:10.204Z,1.80
2022-08-11T01:15:40.306Z,1.60
2022-08-11T01:18:56.912Z,1.57
2022-08-11T01:22:37.812Z,1.67
2022-08-11T01:26:10.610Z,1.87
2022-08-11T01:29:29.866Z,2.10
2022-08-11T01:33:00.619Z,1.87
2022-08-11T01:36:22.083Z,1.90
2022-08-11T01:39:46.749Z,1.90
2022-08-11T01:43:26.174Z,1.87
2022-08-11T01:46:19.039Z,1.80
2022-08-11T01:49:58.480Z,1.80
2022-08-11T01:52:33.362Z,1.70
2022-08-11T01:55:29.137Z,2.03
2022-08-11T01:58:39.821Z,2.00
2022-08-11T02:01:42.641Z,1.63
2022-08-11T02:04:34.819Z,1.90
2022-08-11T02:07:31.973Z,1.77
2022-08-11T02:10:50.516Z,2.20
2022-08-11T02:13:58.619Z,2.03
2022-08-11T02:17:09.053Z,2.20
2022-08-11T02:20:25.857Z,1.97
2022-08-11T02:24:06.069Z,2.00
2022-08-11T02:26:59.220Z,2.20
2022-08-11T02:30:04.973Z,2.10
2022-08-11T02:33:17.171Z,2.20
2022-08-11T02:36:11.077Z,1.73
2022-08-11T02:39:04.525Z,1.90
2022-08-11T02:42:42.162Z,1.93
2022-08-11T02:45:38.521Z,2.53
2022-08-11T02:48:54.886Z,2.30
2022-08-11T02:51:58.093Z,2.13
2022-08-11T02:54:56.449Z,1.90
2022-08-11T02:57:52.266Z,1.70
2022-08-11T03:00:50.677Z,2.37
2022-08-11T03:03:43.714Z,1.57
2022-08-11T03:06:38.816Z,1.57
2022-08-11T03:09:42.933Z,1.90
2022-08-11T03:12:58.761Z,1.97
2022-08-11T03:16:10.701Z,1.77
2022-08-11T03:19:09.786Z,1.63
2022-08-11T03:22:06.379Z,1.60
2022-08-11T03:25:02.943Z,2.07
2022-08-11T03:27:58.879Z,1.40
2022-08-11T03:30:57.788Z,1.83
2022-08-11T03:34:07.519Z,1.33
2022-08-11T03:37:47.032Z,1.67
2022-08-11T03:42:03.949Z,1.80
2022-08-11T03:44:44.603Z,1.37
2022-08-11T03:47:52.535Z,1.67
2022-08-11T03:50:57.865Z,1.63
2022-08-11T03:54:01.197Z,1.50
2022-08-11T03:57:22.055Z,1.63
2022-08-11T04:00:38.982Z,1.80
2022-08-11T04:03:59.460Z,1.60
2022-08-11T04:07:19.693Z,1.50
2022-08-11T04:10:49.600Z,1.90
2022-08-11T04:14:30.858Z,1.83
2022-08-11T04:17:50.059Z,1.70
2022-08-11T04:20:52.614Z,1.60
2022-08-11T04:24:34.488Z,2.00
2022-08-11T04:27:45.692Z,1.70
2022-08-11T04:30:54.665Z,1.80
2022-08-11T04:34:00.688Z,1.80
2022-08-11T04:37:34.554Z,2.27
2022-08-11T04:40:49.789Z,1.70
2022-08-11T04:44:21.819Z,1.47
2022-08-11T04:48:04.461Z,1.57
2022-08-11T04:51:25.502Z,1.70
2022-08-11T04:54:56.895Z,1.67
2022-08-11T04:58:11.647Z,1.47
2022-08-11T05:01:37.494Z,1.80
2022-08-11T05:05:09.233Z,1.77
2022-08-11T05:08:40.810Z,1.53
2022-08-11T05:12:10.822Z,1.90
2022-08-11T05:15:17.722Z,1.37
2022-08-11T05:18:31.538Z,1.60
2022-08-11T05:21:45.286Z,1.73
2022-08-11T05:24:59.630Z,1.47
2022-08-11T05:28:20.281Z,1.70
2022-08-11T05:31:30.568Z,1.37
2022-08-11T05:34:40.376Z,1.30
2022-08-11T05:37:35.344Z,1.40
2022-08-11T05:40:42.953Z,1.67
2022-08-11T05:44:20.126Z,1.60
2022-08-11T05:47:27.437Z,1.50
2022-08-11T05:50:37.308Z,1.87
2022-08-11T05:53:46.300Z,2.03
2022-08-11T05:56:44.187Z,1.50
2022-08-11T05:59:33.473Z,1.33
2022-08-11T06:02:21.404Z,1.77
2022-08-11T06:05:10.190Z,1.47
2022-08-11T06:07:58.093Z,1.50
2022-08-11T06:10:47.229Z,1.63
2022-08-11T06:13:36.913Z,1.87
2022-08-11T06:16:28.010Z,1.43
2022-08-11T06:19:16.768Z,1.70
2022-08-11T06:22:06.057Z,1.80
2022-08-11T06:24:57.613Z,1.77
2022-08-11T06:27:47.219Z,1.50
2022-08-11T06:30:42.615Z,1.73
2022-08-11T06:33:36.013Z,1.70
2022-08-11T06:36:32.143Z,1.50
2022-08-11T06:39:28.241Z,1.87
2022-08-11T06:42:33.688Z,1.90
2022-08-11T06:45:30.185Z,2.43
2022-08-11T06:48:22.170Z,1.70
2022-08-11T06:51:13.659Z,1.80
2022-08-11T06:54:05.605Z,1.87
2022-08-11T06:57:29.250Z,1.93
2022-08-11T07:00:33.135Z,2.03
2022-08-11T07:03:24.267Z,1.90
2022-08-11T07:06:26.314Z,1.97
2022-08-11T07:10:20.564Z,2.03
2022-08-11T07:13:44.105Z,2.00
2022-08-11T07:16:35.356Z,2.00
2022-08-11T07:19:45.363Z,2.07
2022-08-11T07:22:51.782Z,2.40
2022-08-11T07:26:00.302Z,1.90
2022-08-11T07:28:56.153Z,1.80
2022-08-11T07:31:51.054Z,2.40
2022-08-11T07:34:43.916Z,2.00
2022-08-11T07:37:34.186Z,2.03
2022-08-11T07:40:23.958Z,2.30
2022-08-11T07:43:14.016Z,2.13
2022-08-11T07:46:22.890Z,2.27
2022-08-11T07:49:29.605Z,2.63
2022-08-11T07:52:33.481Z,2.43
2022-08-11T07:55:50.941Z,2.57
2022-08-11T07:58:53.492Z,3.57
2022-08-11T08:02:00.914Z,2.57
2022-08-11T08:05:07.862Z,2.40
2022-08-11T08:08:14.914Z,2.43
2022-08-11T08:11:27.449Z,2.23
2022-08-11T08:14:35.214Z,2.63
2022-08-11T08:17:41.915Z,2.80
2022-08-11T08:20:33.745Z,2.53
2022-08-11T08:23:34.290Z,2.43
2022-08-11T08:26:40.028Z,2.43
2022-08-11T08:29:47.871Z,2.50
2022-08-11T08:32:40.443Z,2.70
2022-08-11T08:35:32.852Z,2.70
2022-08-11T08:38:22.382Z,2.70
2022-08-11T08:41:14.013Z,2.80
2022-08-11T08:44:36.711Z,2.93
2022-08-11T08:47:41.048Z,2.70
2022-08-11T08:50:51.997Z,3.17
2022-08-11T08:53:52.332Z,2.90
2022-08-11T08:56:46.562Z,3.43
2022-08-11T08:59:48.907Z,2.90
2022-08-11T09:02:38.209Z,2.90
2022-08-11T09:05:27.490Z,3.43
2022-08-11T09:08:15.943Z,3.00
2022-08-11T09:11:24.094Z,3.60
2022-08-11T09:14:15.133Z,3.30
2022-08-11T09:17:03.432Z,3.47
2022-08-11T09:19:58.675Z,3.10
2022-08-11T09:26:34.164Z,3.10
2022-08-11T09:29:22.837Z,4.90
2022-08-11T09:32:10.781Z,3.30
2022-08-11T09:34:58.894Z,3.20
2022-08-11T09:38:04.330Z,3.20
2022-08-11T09:40:56.305Z,3.30
2022-08-11T09:44:06.391Z,3.43
2022-08-11T09:46:59.331Z,3.43
2022-08-11T09:49:48.864Z,3.40
2022-08-11T09:52:48.101Z,3.33
2022-08-11T09:55:46.041Z,3.50
2022-08-11T09:58:42.741Z,3.10
2022-08-11T10:01:41.619Z,3.38
2022-08-11T10:04:36.588Z,3.20
2022-08-11T10:07:25.763Z,3.50
2022-08-11T10:10:13.946Z,3.33
2022-08-11T10:14:04.965Z,3.30
2022-08-11T10:16:15.328Z,3.20
2022-08-11T10:19:06.784Z,3.80
2022-08-11T10:22:10.135Z,3.50
2022-08-11T10:25:19.923Z,3.65
2022-08-11T10:28:28.380Z,3.47
2022-08-11T10:31:52.935Z,3.55
2022-08-11T10:34:51.188Z,3.75
2022-08-11T10:38:08.306Z,3.42
2022-08-11T10:41:13.787Z,3.22
2022-08-11T10:44:03.986Z,3.67
2022-08-11T10:47:11.032Z,3.40
2022-08-11T10:50:18.465Z,3.67
2022-08-11T10:53:25.847Z,3.42
2022-08-11T10:56:31.674Z,3.25
2022-08-11T10:59:23.755Z,3.72
2022-08-11T11:02:15.310Z,3.53
2022-08-11T11:05:10.863Z,3.42
2022-08-11T11:08:28.597Z,3.33
2022-08-11T11:11:20.807Z,3.83
2022-08-11T11:14:27.190Z,3.50
2022-08-11T11:17:35.032Z,3.40
2022-08-11T11:20:36.077Z,3.53
2022-08-11T11:23:28.894Z,3.42
2022-08-11T11:26:42.119Z,3.65
2022-08-11T11:29:49.046Z,3.70
2022-08-11T11:32:49.444Z,3.60
2022-08-11T11:35:48.479Z,4.00
2022-08-11T11:38:36.660Z,3.95
2022-08-11T11:41:28.300Z,3.80
2022-08-11T11:44:16.714Z,4.18
2022-08-11T11:47:05.681Z,4.10
2022-08-11T11:49:54.456Z,3.90
2022-08-11T11:52:44.314Z,4.13
2022-08-11T11:55:32.757Z,3.88
2022-08-11T11:58:39.615Z,3.60
2022-08-11T12:01:28.423Z,3.92
2022-08-11T12:04:18.339Z,3.95
2022-08-11T12:07:26.590Z,4.30
2022-08-11T12:10:16.824Z,3.95
2022-08-11T12:13:22.723Z,3.97
2022-08-11T12:16:33.465Z,4.18
2022-08-11T12:19:24.685Z,4.43
2022-08-11T12:22:31.955Z,4.32
2022-08-11T12:25:39.163Z,4.03
2022-08-11T12:28:29.179Z,4.03
2022-08-11T12:31:17.349Z,3.70
2022-08-11T12:34:06.394Z,4.40
2022-08-11T12:36:58.435Z,4.10
2022-08-11T12:40:16.835Z,4.25
2022-08-11T12:43:39.526Z,3.90
2022-08-11T12:46:38.018Z,3.88
2022-08-11T12:49:45.698Z,4.10
2022-08-11T12:52:38.163Z,4.28
2022-08-11T12:55:40.828Z,4.25
2022-08-11T12:58:30.342Z,3.85
2022-08-11T13:01:36.442Z,3.83
2022-08-11T13:04:42.288Z,4.45
2022-08-11T13:07:50.476Z,4.05
2022-08-11T13:10:57.860Z,4.10
2022-08-11T13:13:53.699Z,4.20
2022-08-11T13:17:04.340Z,4.25
2022-08-11T13:19:53.433Z,3.95
2022-08-11T13:22:45.371Z,3.80
2022-08-11T13:25:34.075Z,4.50
2022-08-11T13:28:23.778Z,4.03
2022-08-11T13:31:14.886Z,3.92
2022-08-11T13:37:00.067Z,3.38
2022-08-11T13:39:48.327Z,3.90
2022-08-11T13:42:37.548Z,3.35
2022-08-11T13:45:26.189Z,3.45
2022-08-11T13:48:17.043Z,3.85
2022-08-11T13:51:22.777Z,3.95
2022-08-11T13:54:23.581Z,3.60
2022-08-11T13:58:07.620Z,4.22
2022-08-11T14:00:28.044Z,3.80
2022-08-11T14:03:20.709Z,3.95
2022-08-11T14:06:10.036Z,3.80
2022-08-11T14:08:59.166Z,3.92
2022-08-11T14:12:21.202Z,4.03
2022-08-11T14:15:19.927Z,3.88
2022-08-11T14:18:10.484Z,4.30
2022-08-11T14:21:20.292Z,4.30
2022-08-11T14:24:11.579Z,4.18
2022-08-11T14:27:02.087Z,4.30
2022-08-11T14:29:50.151Z,3.83
2022-08-11T14:32:55.397Z,3.95
2022-08-11T14:35:44.497Z,3.85
2022-08-11T14:38:39.144Z,3.97
2022-08-11T14:42:09.963Z,3.90
2022-08-11T14:45:20.820Z,4.07
2022-08-11T14:48:11.249Z,3.95
2022-08-11T14:51:00.076Z,3.90
2022-08-11T14:54:09.580Z,4.35
2022-08-11T14:56:59.925Z,4.03
2022-08-11T14:59:50.609Z,3.72
2022-08-11T15:02:58.165Z,3.90
2022-08-11T15:05:54.316Z,4.18
2022-08-11T15:08:57.697Z,4.10
2022-08-11T15:12:00.963Z,3.88
2022-08-11T15:15:07.611Z,4.15
2022-08-11T15:18:02.200Z,4.07
2022-08-11T15:21:08.187Z,3.83
2022-08-11T15:24:13.367Z,4.05
2022-08-11T15:27:22.947Z,4.22
2022-08-11T15:30:33.825Z,4.10
2022-08-11T15:33:41.736Z,3.95
2022-08-11T15:36:51.692Z,3.92
2022-08-11T15:40:32.196Z,3.88
2022-08-11T15:43:41.230Z,4.47
2022-08-11T15:46:32.518Z,4.10
2022-08-11T15:49:24.886Z,3.80
2022-08-11T15:52:38.750Z,3.88
2022-08-11T15:55:29.835Z,4.03
2022-08-11T15:58:38.499Z,4.07
2022-08-11T16:01:45.720Z,3.92
2022-08-11T16:04:35.968Z,4.20
2022-08-11T16:07:27.722Z,4.10
2022-08-11T16:10:21.563Z,3.88
2022-08-11T16:13:29.330Z,4.10
2022-08-11T16:16:18.899Z,4.20
2022-08-11T16:19:10.737Z,4.00
2022-08-11T16:21:58.881Z,3.97
2022-08-11T16:27:03.666Z,4.00
2022-08-11T16:28:02.245Z,3.70
2022-08-11T16:30:50.997Z,4.07
2022-08-11T16:33:49.726Z,3.75
2022-08-11T16:36:57.218Z,3.90
2022-08-11T16:39:45.827Z,4.22
2022-08-11T16:43:08.673Z,4.07
2022-08-11T16:46:17.345Z,4.20
2022-08-11T16:49:09.437Z,3.75
2022-08-11T16:51:57.324Z,3.90
2022-08-11T16:54:46.194Z,3.90
2022-08-11T16:57:53.063Z,4.00
2022-08-11T17:00:41.349Z,3.72
2022-08-11T17:03:50.292Z,3.55
2022-08-11T17:07:00.031Z,4.15
2022-08-11T17:10:39.076Z,3.80
2022-08-11T17:13:20.401Z,3.65
2022-08-11T17:16:13.216Z,3.60
2022-08-11T17:19:05.260Z,3.85
2022-08-11T17:22:12.865Z,3.67
2022-08-11T17:25:02.033Z,3.67
2022-08-11T17:27:51.699Z,3.60
2022-08-11T17:31:00.612Z,3.45
2022-08-11T17:34:06.561Z,3.80
2022-08-11T17:36:57.129Z,3.70
2022-08-11T17:39:45.350Z,3.70
2022-08-11T17:42:52.261Z,4.03
2022-08-11T17:45:56.386Z,3.72
2022-08-11T17:48:48.236Z,3.80
2022-08-11T17:51:55.350Z,3.60
2022-08-11T17:55:06.035Z,3.47
2022-08-11T17:58:14.665Z,3.78
2022-08-11T18:01:09.412Z,3.58
2022-08-11T18:03:59.691Z,3.50
2022-08-11T18:06:48.693Z,3.97
2022-08-11T18:09:54.717Z,3.30
2022-08-11T18:13:03.324Z,3.80
2022-08-11T18:16:09.666Z,3.60
2022-08-11T18:19:15.423Z,4.10
2022-08-11T18:22:26.872Z,3.72
2022-08-11T18:25:35.221Z,3.83
2022-08-11T18:28:46.715Z,3.85
2022-08-11T18:31:55.414Z,3.80
2022-08-11T18:35:02.280Z,3.80
2022-08-11T18:38:09.600Z,3.88
2022-08-11T18:41:15.976Z,3.88
2022-08-11T18:44:25.668Z,3.63
2022-08-11T18:47:33.422Z,3.90
2022-08-11T18:50:41.629Z,4.10
2022-08-11T18:53:55.981Z,3.60
2022-08-11T18:57:06.474Z,3.60
2022-08-11T19:00:13.997Z,4.05
2022-08-11T19:03:22.552Z,3.90
2022-08-11T19:06:38.850Z,3.97
2022-08-11T19:09:48.152Z,4.00
2022-08-11T19:12:56.079Z,3.80
2022-08-11T19:16:05.878Z,3.88
2022-08-11T19:19:13.518Z,3.80
2022-08-11T19:22:20.840Z,4.03
2022-08-11T19:25:27.631Z,4.00
2022-08-11T19:28:37.814Z,4.10
2022-08-11T19:31:46.614Z,3.67
2022-08-11T19:34:52.476Z,3.67
2022-08-11T19:37:58.876Z,3.58
2022-08-11T19:41:05.228Z,3.80
2022-08-11T19:44:14.772Z,3.55
2022-08-11T19:47:24.310Z,3.53
2022-08-11T19:50:31.812Z,3.42
2022-08-11T19:53:40.112Z,3.47
2022-08-11T19:56:46.559Z,3.30
2022-08-11T19:59:53.068Z,3.58
2022-08-11T20:02:59.719Z,3.60
2022-08-11T20:06:06.761Z,3.60
2022-08-11T20:09:17.534Z,3.53
2022-08-11T20:12:24.419Z,3.42
2022-08-11T20:15:32.168Z,3.33
2022-08-11T20:18:39.891Z,3.45
2022-08-11T20:21:47.105Z,3.80
2022-08-11T20:24:56.743Z,3.22
2022-08-11T20:28:04.546Z,3.65
2022-08-11T20:31:14.280Z,3.35
2022-08-11T20:34:23.988Z,3.50
2022-08-11T20:37:32.852Z,3.72
2022-08-11T20:40:42.753Z,3.88
2022-08-11T20:44:08.245Z,4.32
2022-08-11T20:47:15.917Z,3.80
2022-08-11T20:50:24.943Z,3.20
2022-08-11T20:53:39.310Z,3.57
2022-08-11T20:56:48.268Z,3.40
2022-08-11T20:59:57.110Z,3.60
2022-08-11T21:03:04.671Z,3.60
2022-08-11T21:06:12.194Z,3.17
2022-08-11T21:09:20.928Z,3.33
2022-08-11T21:12:31.543Z,3.37
2022-08-11T21:16:01.224Z,3.57
2022-08-11T21:19:06.203Z,3.33
2022-08-11T21:22:16.261Z,3.37
2022-08-11T21:25:28.407Z,3.33
2022-08-11T21:28:37.292Z,3.57
2022-08-11T21:31:44.686Z,3.50
2022-08-11T21:34:51.280Z,3.30
2022-08-11T21:37:58.943Z,3.70
2022-08-11T21:41:06.790Z,3.33
2022-08-11T21:44:14.180Z,3.60
2022-08-11T21:47:21.544Z,3.70
2022-08-11T21:50:49.951Z,3.60
2022-08-11T21:54:06.592Z,3.77
2022-08-11T21:57:19.549Z,3.53
2022-08-11T22:00:26.540Z,3.33
2022-08-11T22:03:54.752Z,3.27
2022-08-11T22:07:04.510Z,3.37
2022-08-11T22:10:41.415Z,3.43
2022-08-11T22:13:43.363Z,3.40
2022-08-11T22:17:11.747Z,3.33
2022-08-11T22:20:18.029Z,3.60
2022-08-11T22:23:25.760Z,3.37
2022-08-11T22:26:42.866Z,3.33
2022-08-11T22:29:53.591Z,3.57
2022-08-11T22:33:00.514Z,3.73
2022-08-11T22:36:07.840Z,3.57
2022-08-11T22:39:16.831Z,3.47
2022-08-11T22:42:34.014Z,3.70
2022-08-11T22:45:39.891Z,3.33
2022-08-11T22:48:48.714Z,3.43
2022-08-11T22:51:55.584Z,3.33
2022-08-11T22:55:01.370Z,3.93
2022-08-11T22:58:09.805Z,3.80
2022-08-11T23:01:16.698Z,3.57
2022-08-11T23:04:24.444Z,3.90
2022-08-11T23:07:50.568Z,3.70
2022-08-11T23:10:57.580Z,3.80
2022-08-11T23:14:05.286Z,4.00
2022-08-11T23:17:12.759Z,3.80
2022-08-11T23:20:35.025Z,3.90
2022-08-11T23:23:47.268Z,3.90
2022-08-11T23:26:54.468Z,4.00
2022-08-11T23:30:02.210Z,3.43
2022-08-11T23:33:11.478Z,3.80
2022-08-11T23:36:36.217Z,4.30
2022-08-11T23:39:42.491Z,3.63
2022-08-11T23:42:47.896Z,3.67
2022-08-11T23:45:54.760Z,3.33
2022-08-11T23:49:00.939Z,3.53
2022-08-11T23:52:08.299Z,3.60
2022-08-11T23:55:14.947Z,3.43
2022-08-11T23:58:20.767Z,3.50
